createdAt,value
2023-05-23T00:00:17.038Z,21.33
2023-05-23T00:02:43.767Z,24.02
2023-05-23T00:05:10.412Z,22.15
2023-05-23T00:07:36.927Z,24.35
2023-05-23T00:10:03.888Z,23.27
2023-05-23T00:12:30.416Z,29.15
2023-05-23T00:14:56.937Z,27.25
2023-05-23T00:17:24.879Z,29.88
2023-05-23T00:19:51.402Z,30.73
2023-05-23T00:22:18.061Z,29.60
2023-05-23T00:24:44.550Z,37.20
2023-05-23T00:27:11.042Z,33.33
2023-05-23T00:29:37.549Z,34.55
2023-05-23T00:32:04.394Z,39.95
2023-05-23T00:34:32.351Z,35.88
2023-05-23T00:36:58.909Z,39.28
2023-05-23T00:39:25.402Z,42.63
2023-05-23T00:41:53.119Z,42.50
2023-05-23T00:44:20.218Z,42.63
2023-05-23T00:46:50.522Z,52.40
2023-05-23T00:49:17.181Z,44.25
2023-05-23T00:51:45.150Z,50.23
2023-05-23T00:54:13.041Z,49.30
2023-05-23T00:56:39.754Z,57.53
2023-05-23T00:59:07.700Z,53.50
2023-05-23T01:01:34.554Z,55.28
2023-05-23T01:04:01.077Z,64.38
2023-05-23T01:06:27.710Z,64.38
2023-05-23T01:08:55.530Z,63.53
2023-05-23T01:11:30.238Z,67.70
2023-05-23T01:14:01.491Z,64.30
2023-05-23T01:16:42.871Z,67.72
2023-05-23T01:19:29.456Z,69.03
2023-05-23T01:22:03.684Z,69.30
2023-05-23T01:24:36.642Z,79.70
2023-05-23T01:27:09.189Z,68.25
2023-05-23T01:29:39.835Z,75.80
2023-05-23T01:32:10.472Z,69.75
2023-05-23T01:34:38.292Z,70.53
2023-05-23T01:37:08.721Z,77.55
2023-05-23T01:39:35.324Z,80.55
2023-05-23T01:42:02.217Z,77.23
2023-05-23T01:44:29.058Z,70.30
2023-05-23T01:46:57.422Z,73.72
2023-05-23T01:49:24.352Z,77.30
2023-05-23T01:51:51.043Z,86.32
2023-05-23T01:54:18.196Z,85.40
2023-05-23T01:56:45.284Z,88.30
2023-05-23T01:59:12.251Z,94.22
2023-05-23T02:01:39.000Z,92.57
2023-05-23T02:04:07.067Z,80.35
2023-05-23T02:06:33.615Z,91.50
2023-05-23T02:09:00.135Z,102.15
2023-05-23T02:11:26.775Z,89.80
2023-05-23T02:13:53.312Z,95.13
2023-05-23T02:16:19.847Z,92.65
2023-05-23T02:18:46.519Z,95.47
2023-05-23T02:21:14.570Z,91.60
2023-05-23T02:23:41.184Z,98.72
2023-05-23T02:26:07.675Z,91.27
2023-05-23T02:28:34.305Z,95.47
2023-05-23T02:31:00.989Z,102.40
2023-05-23T02:33:27.505Z,91.87
2023-05-23T02:35:54.408Z,88.20
2023-05-23T02:38:22.301Z,100.80
2023-05-23T02:40:48.969Z,94.32
2023-05-23T02:43:15.443Z,95.28
2023-05-23T02:45:42.204Z,103.78
2023-05-23T02:48:09.012Z,97.93
2023-05-23T02:50:35.646Z,94.03
2023-05-23T02:53:02.170Z,94.90
2023-05-23T02:55:30.328Z,110.90
2023-05-23T02:57:56.867Z,94.10
2023-05-23T03:00:23.371Z,97.60
2023-05-23T03:02:50.100Z,91.43
2023-05-23T03:05:17.010Z,101.43
2023-05-23T03:07:43.665Z,102.05
2023-05-23T03:10:10.802Z,91.13
2023-05-23T03:12:38.825Z,95.35
2023-05-23T03:15:06.593Z,96.05
2023-05-23T03:17:35.009Z,90.20
2023-05-23T03:20:01.709Z,94.00
2023-05-23T03:22:28.368Z,99.43
2023-05-23T03:24:55.248Z,105.50
2023-05-23T03:27:21.882Z,86.18
2023-05-23T03:29:49.960Z,97.87
2023-05-23T03:32:16.674Z,95.47
2023-05-23T03:34:43.462Z,106.07
2023-05-23T03:37:10.186Z,98.27
2023-05-23T03:39:39.403Z,101.85
2023-05-23T03:42:07.166Z,98.60
2023-05-23T03:44:33.856Z,92.38
2023-05-23T03:47:01.893Z,88.13
2023-05-23T03:49:28.573Z,96.18
2023-05-23T03:51:55.200Z,91.67
2023-05-23T03:54:21.818Z,92.97
2023-05-23T03:56:48.548Z,89.50
2023-05-23T03:59:15.229Z,86.75
2023-05-23T04:01:41.870Z,91.77
2023-05-23T04:04:10.137Z,87.67
2023-05-23T04:06:36.949Z,90.72
2023-05-23T04:09:03.630Z,85.03
2023-05-23T04:11:30.339Z,94.50
2023-05-23T04:13:56.976Z,88.53
2023-05-23T04:16:23.782Z,88.03
2023-05-23T04:18:50.654Z,87.53
2023-05-23T04:21:18.737Z,84.18
2023-05-23T04:23:45.443Z,85.68
2023-05-23T04:26:12.020Z,83.53
2023-05-23T04:28:38.521Z,74.70
2023-05-23T04:31:05.422Z,79.93
2023-05-23T04:35:58.879Z,83.38
2023-05-23T04:38:26.698Z,82.47
2023-05-23T04:40:53.756Z,79.75
2023-05-23T04:43:20.337Z,85.03
2023-05-23T04:45:47.583Z,74.00
2023-05-23T04:48:14.197Z,81.93
2023-05-23T04:50:40.719Z,78.33
2023-05-23T04:53:07.321Z,84.07
2023-05-23T04:55:35.427Z,77.88
2023-05-23T04:58:02.027Z,80.25
2023-05-23T05:00:28.530Z,83.50
2023-05-23T05:02:55.149Z,91.13
2023-05-23T05:05:21.708Z,81.70
2023-05-23T05:07:48.204Z,80.75
2023-05-23T05:10:15.039Z,87.70
2023-05-23T05:12:43.146Z,86.28
2023-05-23T05:15:10.890Z,87.03
2023-05-23T05:17:37.508Z,89.13
2023-05-23T05:20:04.552Z,88.60
2023-05-23T05:22:31.052Z,94.35
2023-05-23T05:24:57.535Z,95.93
2023-05-23T05:27:24.756Z,92.65
2023-05-23T05:29:54.025Z,91.65
2023-05-23T05:32:20.531Z,91.68
2023-05-23T05:34:49.372Z,94.33
2023-05-23T05:37:16.264Z,88.20
2023-05-23T05:39:42.769Z,92.03
2023-05-23T05:42:09.228Z,87.50
2023-05-23T05:44:35.788Z,94.82
2023-05-23T05:47:03.915Z,92.13
2023-05-23T05:49:30.513Z,94.20
2023-05-23T05:51:57.078Z,88.27
2023-05-23T05:54:23.571Z,86.32
2023-05-23T05:56:50.240Z,91.95
2023-05-23T05:59:16.768Z,90.27
2023-05-23T06:01:43.435Z,86.63
2023-05-23T06:04:11.558Z,85.80
2023-05-23T06:06:38.310Z,83.50
2023-05-23T06:09:04.873Z,84.60
2023-05-23T06:11:32.367Z,89.43
2023-05-23T06:13:59.002Z,75.45
2023-05-23T06:16:25.833Z,80.05
2023-05-23T06:18:52.418Z,80.37
2023-05-23T06:21:20.290Z,78.30
2023-05-23T06:23:46.830Z,76.45
2023-05-23T06:26:13.454Z,83.45
2023-05-23T06:28:40.054Z,78.60
2023-05-23T06:31:06.716Z,79.43
2023-05-23T06:33:33.251Z,77.70
2023-05-23T06:35:59.779Z,72.03
2023-05-23T06:38:31.836Z,77.65
2023-05-23T06:40:58.439Z,75.05
2023-05-23T06:43:24.978Z,70.10
2023-05-23T06:45:51.872Z,65.72
2023-05-23T06:48:18.395Z,71.40
2023-05-23T06:50:46.252Z,65.35
2023-05-23T06:53:12.910Z,64.50
2023-05-23T06:55:40.819Z,61.72
2023-05-23T06:58:07.372Z,65.82
2023-05-23T07:00:33.956Z,74.43
2023-05-23T07:03:00.599Z,62.13
2023-05-23T07:05:27.537Z,64.03
2023-05-23T07:07:54.261Z,65.88
2023-05-23T07:10:20.970Z,63.40
2023-05-23T07:12:48.819Z,60.33
2023-05-23T07:15:15.532Z,63.00
2023-05-23T07:17:42.266Z,67.18
2023-05-23T07:20:09.352Z,60.72
2023-05-23T07:22:35.916Z,66.57
2023-05-23T07:25:02.519Z,56.17
2023-05-23T07:27:29.040Z,54.70
2023-05-23T07:29:56.869Z,63.08
2023-05-23T07:32:23.371Z,59.15
2023-05-23T07:34:49.860Z,63.70
2023-05-23T07:37:16.421Z,65.80
2023-05-23T07:39:42.976Z,60.20
2023-05-23T07:42:09.431Z,64.13
2023-05-23T07:44:35.895Z,60.58
2023-05-23T07:47:04.161Z,60.72
2023-05-23T07:49:30.652Z,55.22
2023-05-23T07:51:58.318Z,60.22
2023-05-23T07:54:24.876Z,55.05
2023-05-23T07:56:52.611Z,55.38
2023-05-23T07:59:19.152Z,55.17
2023-05-23T08:01:45.677Z,57.20
2023-05-23T08:04:13.610Z,57.20
2023-05-23T08:06:43.373Z,51.67
2023-05-23T08:09:18.512Z,56.97
2023-05-23T08:11:45.010Z,53.33
2023-05-23T08:14:11.511Z,52.80
2023-05-23T08:16:38.335Z,56.92
2023-05-23T08:19:05.018Z,54.53
2023-05-23T08:21:32.897Z,59.13
2023-05-23T08:23:59.443Z,50.22
2023-05-23T08:26:25.964Z,47.40
2023-05-23T08:28:52.893Z,50.67
2023-05-23T08:31:19.540Z,53.55
2023-05-23T08:33:46.057Z,51.23
2023-05-23T08:36:12.617Z,50.03
2023-05-23T08:38:40.444Z,49.05
2023-05-23T08:41:13.668Z,43.95
2023-05-23T08:43:40.178Z,43.50
2023-05-23T08:46:06.755Z,50.70
2023-05-23T08:48:38.073Z,40.17
2023-05-23T08:51:04.760Z,41.80
2023-05-23T08:53:31.936Z,41.30
2023-05-23T08:56:00.545Z,40.28
2023-05-23T08:58:27.246Z,38.35
2023-05-23T09:00:54.077Z,47.20
2023-05-23T09:03:20.710Z,36.83
2023-05-23T09:05:48.145Z,40.25
2023-05-23T09:10:42.137Z,37.13
2023-05-23T09:13:10.202Z,37.28
2023-05-23T09:15:36.695Z,36.85
2023-05-23T09:18:03.375Z,36.20
2023-05-23T09:20:30.258Z,39.75
2023-05-23T09:22:56.815Z,33.47
2023-05-23T09:25:23.685Z,39.35
2023-05-23T09:27:52.532Z,36.03
2023-05-23T09:30:20.511Z,33.22
2023-05-23T09:32:58.768Z,30.60
2023-05-23T09:35:28.494Z,34.22
2023-05-23T09:37:55.086Z,36.13
2023-05-23T09:40:21.651Z,30.80
2023-05-23T09:42:48.619Z,33.87
2023-05-23T09:45:16.890Z,30.33
2023-05-23T09:47:50.887Z,32.53
2023-05-23T09:50:17.552Z,27.40
2023-05-23T09:52:44.090Z,31.23
2023-05-23T09:55:10.701Z,30.00
2023-05-23T09:57:41.405Z,28.40
2023-05-23T10:00:09.514Z,29.25
2023-05-23T10:02:56.876Z,27.55
2023-05-23T10:05:33.118Z,29.83
2023-05-23T10:08:01.388Z,28.08
2023-05-23T10:10:31.760Z,24.70
2023-05-23T10:12:59.659Z,23.58
2023-05-23T10:15:30.873Z,23.23
2023-05-23T10:18:03.671Z,21.25
2023-05-23T10:20:31.672Z,23.30
2023-05-23T10:22:59.769Z,23.85
2023-05-23T10:25:26.702Z,19.58
2023-05-23T10:27:55.264Z,20.58
2023-05-23T10:30:21.890Z,16.30
2023-05-23T10:32:49.297Z,21.23
2023-05-23T10:37:55.781Z,19.58
2023-05-23T10:40:31.817Z,17.77
2023-05-23T10:43:04.377Z,18.55
2023-05-23T10:45:39.536Z,19.50
2023-05-23T10:48:20.087Z,15.32
2023-05-23T10:51:02.261Z,14.85
2023-05-23T10:53:29.978Z,18.45
2023-05-23T10:55:57.067Z,17.73
2023-05-23T10:58:23.765Z,18.05
2023-05-23T11:00:54.812Z,16.40
2023-05-23T11:03:31.788Z,11.88
2023-05-23T11:05:59.944Z,19.88
2023-05-23T11:08:32.551Z,14.23
2023-05-23T11:11:10.128Z,17.85
2023-05-23T11:13:56.743Z,13.10
2023-05-23T11:16:27.646Z,12.20
2023-05-23T11:19:22.144Z,13.40
2023-05-23T11:21:53.330Z,18.60
2023-05-23T11:24:20.076Z,15.75
2023-05-23T11:26:53.996Z,12.52
2023-05-23T11:29:21.009Z,13.38
2023-05-23T11:31:47.626Z,14.50
2023-05-23T11:34:14.254Z,14.13
2023-05-23T11:36:41.507Z,14.45
2023-05-23T11:39:09.684Z,18.27
2023-05-23T11:41:36.270Z,15.27
2023-05-23T11:44:11.074Z,15.80
2023-05-23T11:46:37.723Z,14.85
2023-05-23T11:49:10.970Z,14.50
2023-05-23T11:51:37.600Z,12.88
2023-05-23T11:54:04.292Z,13.95
2023-05-23T11:56:32.245Z,12.23
2023-05-23T11:58:58.862Z,12.13
2023-05-23T12:01:29.195Z,11.47
2023-05-23T12:03:55.779Z,9.05
2023-05-23T12:06:22.954Z,10.55
2023-05-23T12:08:49.569Z,15.30
2023-05-23T12:11:16.230Z,11.17
2023-05-23T12:13:44.253Z,10.32
2023-05-23T12:16:13.176Z,16.60
2023-05-23T12:18:40.086Z,11.10
2023-05-23T12:21:07.116Z,16.73
2023-05-23T12:23:35.203Z,13.32
2023-05-23T12:26:05.279Z,10.50
2023-05-23T12:28:36.495Z,10.30
2023-05-23T12:31:13.726Z,9.05
2023-05-23T12:33:40.984Z,12.27
2023-05-23T12:36:07.691Z,9.15
2023-05-23T12:38:34.366Z,9.32
2023-05-23T12:41:11.586Z,10.23
2023-05-23T12:43:38.981Z,12.10
2023-05-23T12:46:05.509Z,8.98
2023-05-23T12:48:33.547Z,7.43
2023-05-23T12:51:01.451Z,6.68
2023-05-23T12:53:28.013Z,6.60
2023-05-23T12:55:54.510Z,5.80
2023-05-23T12:58:21.019Z,6.43
2023-05-23T13:00:47.665Z,9.63
2023-05-23T13:03:14.186Z,7.93
2023-05-23T13:05:42.859Z,5.18
2023-05-23T13:08:09.740Z,5.35
2023-05-23T13:10:36.268Z,5.70
2023-05-23T13:13:02.842Z,5.80
2023-05-23T13:15:29.454Z,4.13
2023-05-23T13:17:57.769Z,6.97
2023-05-23T13:20:24.695Z,6.05
2023-05-23T13:22:52.678Z,5.93
2023-05-23T13:25:19.321Z,4.50
2023-05-23T13:27:48.176Z,5.68
2023-05-23T13:30:15.668Z,3.75
2023-05-23T13:32:42.234Z,5.18
2023-05-23T13:35:09.263Z,4.82
2023-05-23T13:40:04.796Z,5.10
2023-05-23T13:42:31.793Z,4.60
2023-05-23T13:44:58.324Z,5.10
2023-05-23T13:47:24.877Z,4.27
2023-05-23T13:49:51.449Z,5.72
2023-05-23T13:52:17.998Z,8.37
2023-05-23T13:54:44.568Z,5.90
2023-05-23T13:57:12.555Z,7.13
2023-05-23T13:59:39.118Z,6.05
2023-05-23T14:02:05.947Z,5.17
2023-05-23T14:04:32.944Z,6.47
2023-05-23T14:06:59.424Z,6.95
2023-05-23T14:09:26.039Z,6.18
2023-05-23T14:11:52.643Z,5.50
2023-05-23T14:14:20.550Z,5.95
2023-05-23T14:16:47.416Z,7.60
2023-05-23T14:19:14.122Z,7.47
2023-05-23T14:21:41.770Z,5.00
2023-05-23T14:24:09.185Z,6.70
2023-05-23T14:26:35.695Z,5.17
2023-05-23T14:29:02.308Z,5.87
2023-05-23T14:31:30.208Z,5.67
2023-05-23T14:33:56.913Z,4.65
2023-05-23T14:36:25.098Z,6.85
2023-05-23T14:38:51.640Z,5.20
2023-05-23T14:41:18.277Z,6.50
2023-05-23T14:43:44.789Z,7.83
2023-05-23T14:46:11.523Z,7.30
2023-05-23T14:48:39.387Z,5.95
2023-05-23T14:51:05.891Z,6.00
2023-05-23T14:53:32.390Z,6.70
2023-05-23T14:55:59.416Z,6.20
2023-05-23T14:58:25.894Z,3.90
2023-05-23T15:00:52.477Z,5.00
2023-05-23T15:03:19.130Z,4.37
2023-05-23T15:05:48.961Z,4.50
2023-05-23T15:08:16.016Z,4.85
2023-05-23T15:10:42.528Z,6.17
2023-05-23T15:13:09.018Z,4.30
2023-05-23T15:15:35.492Z,5.63
2023-05-23T15:18:02.076Z,5.50
2023-05-23T15:20:28.738Z,4.67
2023-05-23T15:22:56.847Z,3.50
2023-05-23T15:25:33.353Z,4.45
2023-05-23T15:28:10.770Z,5.57
2023-05-23T15:30:38.069Z,4.60
2023-05-23T15:33:04.652Z,5.13
2023-05-23T15:35:31.207Z,6.00
2023-05-23T15:37:59.057Z,5.57
2023-05-23T15:40:25.553Z,7.53
2023-05-23T15:42:52.056Z,4.22
2023-05-23T15:45:18.590Z,4.20
2023-05-23T15:47:45.130Z,6.03
2023-05-23T15:50:13.644Z,5.72
2023-05-23T15:52:40.947Z,5.35
2023-05-23T15:55:09.389Z,8.17
2023-05-23T15:57:35.892Z,9.40
2023-05-23T16:00:02.529Z,5.90
2023-05-23T16:02:29.136Z,5.90
2023-05-23T16:04:55.708Z,6.43
2023-05-23T16:07:22.202Z,5.22
2023-05-23T16:09:48.753Z,9.75
2023-05-23T16:12:16.588Z,9.10
2023-05-23T16:14:43.108Z,7.70
2023-05-23T16:17:09.676Z,7.70
2023-05-23T16:19:36.362Z,10.20
2023-05-23T16:22:03.007Z,6.05
2023-05-23T16:24:29.556Z,7.70
2023-05-23T16:26:56.068Z,7.70
2023-05-23T16:29:23.908Z,6.57
2023-05-23T16:31:50.450Z,6.53
2023-05-23T16:34:17.179Z,7.93
2023-05-23T16:36:43.798Z,8.30
2023-05-23T16:39:10.325Z,8.93
2023-05-23T16:41:36.795Z,13.43
2023-05-23T16:44:03.358Z,8.40
2023-05-23T16:46:31.230Z,8.73
2023-05-23T16:48:57.929Z,11.32
2023-05-23T16:51:24.473Z,8.93
2023-05-23T16:53:50.986Z,11.50
2023-05-23T16:56:17.825Z,11.85
2023-05-23T16:58:44.347Z,10.85
2023-05-23T17:01:10.928Z,11.10
2023-05-23T17:03:38.976Z,13.57
2023-05-23T17:06:05.776Z,14.27
2023-05-23T17:08:32.305Z,15.00
2023-05-23T17:10:58.800Z,14.52
2023-05-23T17:13:25.343Z,14.63
2023-05-23T17:15:51.934Z,14.25
2023-05-23T17:18:18.578Z,11.93
2023-05-23T17:20:46.473Z,14.47
2023-05-23T17:23:12.975Z,14.77
2023-05-23T17:25:39.560Z,12.73
2023-05-23T17:28:06.150Z,12.03
2023-05-23T17:30:32.635Z,12.40
2023-05-23T17:32:59.160Z,11.00
2023-05-23T17:35:25.724Z,15.15
2023-05-23T17:37:53.696Z,16.30
2023-05-23T17:40:20.320Z,12.55
2023-05-23T17:42:46.870Z,14.90
2023-05-23T17:45:13.377Z,13.90
2023-05-23T17:47:39.940Z,11.95
2023-05-23T17:50:07.646Z,12.30
2023-05-23T17:52:34.578Z,13.40
2023-05-23T17:55:02.498Z,10.40
2023-05-23T17:57:29.235Z,11.15
2023-05-23T17:59:55.783Z,9.43
2023-05-23T18:02:22.381Z,11.00
2023-05-23T18:04:49.077Z,10.47
2023-05-23T18:07:15.740Z,10.30
2023-05-23T18:09:42.237Z,9.43
2023-05-23T18:12:10.150Z,9.95
2023-05-23T18:14:36.693Z,7.88
2023-05-23T18:17:03.251Z,9.75
2023-05-23T18:19:29.836Z,8.93
2023-05-23T18:21:56.683Z,13.85
2023-05-23T18:24:23.302Z,12.40
2023-05-23T18:26:49.802Z,9.27
2023-05-23T18:29:17.627Z,11.77
2023-05-23T18:31:44.535Z,13.57
2023-05-23T18:34:11.190Z,11.82
2023-05-23T18:36:37.704Z,12.97
2023-05-23T18:39:04.274Z,9.80
2023-05-23T18:41:30.798Z,12.00
2023-05-23T18:43:57.352Z,11.85
2023-05-23T18:46:25.198Z,11.43
2023-05-23T18:48:52.015Z,13.98
2023-05-23T18:51:18.623Z,14.65
2023-05-23T18:53:45.171Z,17.77
2023-05-23T18:56:11.703Z,12.10
2023-05-23T18:58:38.330Z,14.05
2023-05-23T19:01:04.944Z,16.77
2023-05-23T19:03:32.853Z,23.70
2023-05-23T19:05:59.477Z,18.17
2023-05-23T19:08:26.001Z,15.20
2023-05-23T19:10:52.488Z,20.83
2023-05-23T19:13:20.638Z,15.73
2023-05-23T19:15:47.474Z,16.00
2023-05-23T19:18:13.978Z,20.37
2023-05-23T19:20:41.949Z,16.65
2023-05-23T19:23:08.659Z,19.50
2023-05-23T19:25:35.191Z,17.73
2023-05-23T19:28:01.680Z,22.75
2023-05-23T19:30:28.173Z,20.98
2023-05-23T19:32:54.724Z,18.13
2023-05-23T19:35:21.545Z,16.20
2023-05-23T19:37:49.362Z,20.08
2023-05-23T19:40:16.032Z,18.23
2023-05-23T19:42:42.574Z,17.45
2023-05-23T19:45:09.899Z,18.98
2023-05-23T19:47:36.411Z,19.40
2023-05-23T19:50:03.118Z,18.98
2023-05-23T19:52:29.605Z,18.07
2023-05-23T19:54:57.460Z,16.83
2023-05-23T19:57:23.950Z,17.52
2023-05-23T19:59:50.435Z,17.08
2023-05-23T20:02:17.072Z,17.75
2023-05-23T20:04:43.594Z,23.67
2023-05-23T20:07:10.194Z,16.33
2023-05-23T20:09:36.797Z,19.30
2023-05-23T20:12:05.148Z,24.40
2023-05-23T20:14:32.298Z,18.52
2023-05-23T20:16:58.919Z,17.27
2023-05-23T20:19:25.502Z,15.27
2023-05-23T20:21:52.109Z,24.65
2023-05-23T20:24:18.769Z,16.48
2023-05-23T20:26:46.140Z,16.03
2023-05-23T20:29:13.969Z,17.45
2023-05-23T20:31:40.583Z,16.67
2023-05-23T20:34:07.197Z,17.73
2023-05-23T20:36:33.690Z,18.53
2023-05-23T20:39:00.160Z,19.88
2023-05-23T20:41:26.692Z,19.48
2023-05-23T20:43:53.162Z,20.13
2023-05-23T20:46:21.021Z,18.33
2023-05-23T20:48:47.616Z,19.67
2023-05-23T20:51:14.102Z,14.57
2023-05-23T20:53:40.620Z,16.90
2023-05-23T20:56:07.117Z,17.85
2023-05-23T20:58:33.621Z,14.65
2023-05-23T21:01:00.150Z,18.30
2023-05-23T21:03:28.128Z,13.80
2023-05-23T21:05:54.670Z,15.13
2023-05-23T21:08:21.179Z,17.77
2023-05-23T21:10:50.849Z,17.10
2023-05-23T21:13:18.947Z,12.40
2023-05-23T21:15:45.493Z,13.98
2023-05-23T21:18:12.113Z,19.33
2023-05-23T21:20:40.174Z,10.03
2023-05-23T21:23:06.773Z,9.98
2023-05-23T21:25:33.289Z,7.15
2023-05-23T21:27:59.806Z,6.90
2023-05-23T21:30:40.280Z,11.20
2023-05-23T21:33:06.993Z,7.93
2023-05-23T21:35:33.475Z,9.03
2023-05-23T21:38:01.444Z,12.02
2023-05-23T21:40:27.954Z,6.50
2023-05-23T21:42:54.484Z,9.70
2023-05-23T21:45:21.188Z,6.97
2023-05-23T21:47:47.814Z,6.73
2023-05-23T21:50:14.349Z,9.93
2023-05-23T21:52:40.814Z,6.78
2023-05-23T21:55:08.952Z,6.43
2023-05-23T21:57:35.455Z,8.00
2023-05-23T22:00:01.953Z,7.55
2023-05-23T22:02:28.556Z,6.45
2023-05-23T22:04:55.093Z,9.17
2023-05-23T22:07:21.619Z,7.13
2023-05-23T22:09:48.116Z,5.75
2023-05-23T22:12:16.045Z,6.20
2023-05-23T22:14:42.576Z,6.03
2023-05-23T22:17:09.108Z,6.97
2023-05-23T22:19:35.704Z,8.02
2023-05-23T22:22:02.229Z,8.45
2023-05-23T22:24:28.696Z,5.95
2023-05-23T22:26:55.190Z,9.70
2023-05-23T22:29:23.017Z,6.82
2023-05-23T22:31:49.607Z,10.75
2023-05-23T22:34:16.182Z,8.40
2023-05-23T22:36:42.752Z,8.82
2023-05-23T22:39:09.320Z,6.72
2023-05-23T22:41:35.813Z,8.60
2023-05-23T22:44:02.373Z,7.72
2023-05-23T22:46:30.231Z,8.95
2023-05-23T22:48:56.776Z,6.70
2023-05-23T22:51:23.340Z,8.65
2023-05-23T22:53:50.019Z,7.38
2023-05-23T22:56:16.700Z,9.50
2023-05-23T22:58:43.199Z,10.73
2023-05-23T23:01:09.764Z,6.88
2023-05-23T23:03:37.632Z,8.77
2023-05-23T23:06:04.585Z,7.00
2023-05-23T23:08:31.106Z,8.23
2023-05-23T23:10:57.636Z,9.35
2023-05-23T23:13:24.136Z,6.63
2023-05-23T23:15:50.838Z,15.27
2023-05-23T23:18:17.344Z,7.23
2023-05-23T23:20:45.609Z,5.75
2023-05-23T23:23:12.385Z,6.93
2023-05-23T23:25:38.838Z,9.87
2023-05-23T23:28:05.494Z,7.82
2023-05-23T23:30:31.995Z,7.73
2023-05-23T23:32:58.527Z,8.10
2023-05-23T23:35:25.045Z,6.10
2023-05-23T23:37:52.864Z,13.70
2023-05-23T23:40:19.329Z,6.88
2023-05-23T23:42:45.831Z,4.68
2023-05-23T23:45:12.311Z,7.43
2023-05-23T23:47:38.818Z,7.03
2023-05-23T23:50:06.463Z,6.45
2023-05-23T23:52:32.995Z,8.10
2023-05-23T23:55:00.873Z,6.60
2023-05-23T23:57:27.412Z,6.85
2023-05-23T23:59:53.903Z,6.63
